• Join FlightAware (Why Join?)
  • Login
  • US Flag 
05:54AM EST


 

Airport Tracker/Info


-or-


 

Live Flight TrackerFlight Track Log ✈ FLG4048 ✈ 26-Dec-2013 ✈ KCVG - KBDL

Flight Track Log - Related Links

Times and Time Zones

All times are in EST time to prevent confusion due to time zone crossing. See the FLG4048 flight status page for this flight to view local times or setup timezone preferences in your user account.

Time Position Orientation Groundspeed Altitude Reporting Facility
EST Latitude Longitude Course Direction KTS MPH feet Rate Location/Type
08:01PM 39.0333 -84.6500 113° Southeast 180 207 1,800  Level Cincinnati TRACON
08:01PM 39.0167 -84.6000 113° Southeast 209 241 3,300 2,100 Climbing Cincinnati TRACON
08:02PM 39.0333 -84.5167 76° East 259 298 5,200 1,500 Climbing Cincinnati TRACON
08:03PM 39.0264 -84.4847 106° East 262 302 5,700 1,980 Climbing Indianapolis Center
08:04PM 39.0553 -84.3731 72° East 275 316 8,500 2,460 Climbing Indianapolis Center
08:05PM 39.0906 -84.2744 65° Northeast 301 346 10,800 1,680 Climbing Indianapolis Center
08:06PM 39.1294 -84.1544 67° East 353 406 12,000 1,440 Climbing Indianapolis Center
08:07PM 39.1728 -84.0231 67° East 394 453 13,800 1,740 Climbing Indianapolis Center
08:08PM 39.2217 -83.8894 65° Northeast 410 472 15,600 1,740 Climbing Indianapolis Center
08:09PM 39.2725 -83.7539 64° Northeast 420 483 17,500 1,380 Climbing Indianapolis Center
08:10PM 39.3253 -83.6175 63° Northeast 427 491 18,500 1,080 Climbing Indianapolis Center
08:11PM 39.3892 -83.4458 64° Northeast 444 511 19,800 1,020 Climbing Indianapolis Center
08:12PM 39.4458 -83.2953 64° Northeast 464 534 20,600 720 Climbing Indianapolis Center
08:13PM 39.5033 -83.1414 64° Northeast 478 550 21,400 780 Climbing Indianapolis Center
08:14PM 39.5631 -82.9844 64° Northeast 487 560 22,200 780 Climbing Indianapolis Center
08:15PM 39.6108 -82.8189 69° East 496 571 23,000 780 Climbing Indianapolis Center
08:16PM 39.6286 -82.6022 84° East 507 583 23,900 780 Climbing Indianapolis Center
08:17PM 39.6425 -82.4203 84° East 509 586 24,700 720 Climbing Indianapolis Center
08:18PM 39.6556 -82.2378 85° East 510 587 25,400 540 Climbing Indianapolis Center
08:19PM 39.6700 -82.0556 84° East 517 595 25,900 480 Climbing Indianapolis Center
08:20PM 39.6842 -81.8658 84° East 523 602 26,400 480 Climbing Indianapolis Center
08:21PM 39.6981 -81.6756 85° East 526 605 27,000 1,020 Climbing Indianapolis Center
08:22PM 39.7094 -81.4900 85° East 522 601 28,600 1,260 Climbing Indianapolis Center
08:23PM 39.7711 -81.2872 68° East 506 582 29,700 780 Climbing Indianapolis Center
08:24PM 39.8400 -81.1256 61° Northeast 508 585 30,200 480 Climbing Indianapolis Center
08:25PM 39.9086 -80.9603 62° Northeast 517 595 30,700 420 Climbing Indianapolis Center
08:26PM 39.9544 -80.8558 60° Northeast 515 593 31,000 120 Climbing Cleveland Center
08:27PM 40.0233 -80.6894 62° Northeast 523 602 31,000  Level Cleveland Center
08:28PM 40.0942 -80.5183 62° Northeast 533 613 31,000  Level Cleveland Center
08:29PM 40.1644 -80.3469 62° Northeast 539 620 31,000  Level Cleveland Center
08:30PM 40.2492 -80.1400 62° Northeast 546 628 31,000  Level Cleveland Center
08:31PM 40.3186 -79.9706 62° Northeast 545 627 31,000  Level Cleveland Center
08:32PM 40.3881 -79.7983 62° Northeast 544 626 31,000  Level Cleveland Center
08:33PM 40.4583 -79.6228 62° Northeast 547 629 31,000  Level Cleveland Center
08:34PM 40.5286 -79.4464 62° Northeast 548 631 31,000  Level Cleveland Center
08:35PM 40.6133 -79.2333 62° Northeast 550 633 31,000  Level Cleveland Center
08:36PM 40.6839 -79.0556 62° Northeast 551 634 31,000  Level Cleveland Center
08:37PM 40.7522 -78.8842 62° Northeast 548 631 31,000  Level Cleveland Center
08:38PM 40.8211 -78.7069 63° Northeast 549 632 31,000  Level Cleveland Center
08:40PM 40.8928 -78.5200 63° Northeast 549 632 31,000  Level Cleveland Center
08:41PM 40.9631 -78.3375 63° Northeast 556 640 31,000  Level Cleveland Center
08:42PM 41.0389 -78.1378 63° Northeast 559 643 31,000  Level Cleveland Center
08:43PM 41.1089 -77.9569 63° Northeast 559 643 31,000  Level Cleveland Center
08:44PM 41.1778 -77.7747 63° Northeast 557 641 31,000  Level Cleveland Center
08:44PM 41.2467 -77.5869 64° Northeast 555 639 31,000  Level New York Center
08:45PM 41.3153 -77.4033 64° Northeast 555 639 31,000  Level New York Center
08:46PM 41.3764 -77.2408 63° Northeast 549 632 31,000  Level New York Center
08:47PM 41.4469 -77.0508 64° Northeast 554 638 31,000  Level New York Center
08:48PM 41.5203 -76.8444 65° Northeast 560 644 31,000  Level New York Center
08:49PM 41.5850 -76.6728 63° Northeast 560 644 31,000  Level New York Center
08:50PM 41.6525 -76.4844 64° Northeast 565 650 31,000  Level New York Center
08:51PM 41.7222 -76.2903 64° Northeast 565 650 31,000 -780 Level New York Center
08:52PM 41.7869 -76.1036 65° Northeast 565 650 29,500 -1,380 Descending New York Center
08:54PM 41.9064 -75.7658 64° Northeast 555 639 27,000 -900 Descending Boston Center
08:55PM 41.9742 -75.5842 63° Northeast 548 631 27,000  Level Boston Center
08:56PM 42.0464 -75.3625 66° East 545 627 27,000  Level Boston Center
08:57PM 42.0797 -75.1683 77° East 537 618 27,000 -600 Level Boston Center
08:58PM 42.1019 -74.9653 82° East 532 612 25,800 -1,740 Descending Boston Center
08:59PM 42.1233 -74.7706 82° East 529 609 23,500 -2,580 Descending Boston Center
09:00PM 42.1428 -74.5825 82° East 516 594 20,700 -2,220 Descending Boston Center
09:01PM 42.1611 -74.3917 83° East 503 579 19,000 -1,380 Descending Boston Center
09:02PM 42.1789 -74.2075 83° East 498 573 17,900 -1,560 Descending Boston Center
09:04PM 42.1981 -74.0347 81° East 475 547 15,900 -2,040 Descending Boston Center
09:05PM 42.2156 -73.8586 82° East 445 512 13,900 -1,740 Descending Boston Center
09:06PM 42.2306 -73.7036 83° East 435 501 12,500 -1,380 Descending Boston Center
09:07PM 42.2447 -73.5544 83° East 405 466 11,100 -960 Descending Boston Center
09:07PM 42.2531 -73.4531 84° East 398 458 11,000 -120 Descending Boston Center
09:08PM 42.2583 -73.4061 81° East 402 463 11,000  Level Boston Center
09:08PM 42.2653 -73.3092 84° East 390 449 11,000  Level Boston Center
09:09PM 42.2719 -73.2525 81° East 398 458 11,000 -540 Level Boston Center
09:09PM 42.2781 -73.1628 85° East 389 448 10,500 -780 Descending Boston Center
09:10PM 42.2869 -73.0439 84° East 297 342 9,800 -1,140 Descending Boston Center
09:11PM 42.2961 -72.9336 84° East 285 328 8,200 -1,620 Descending Boston Center
09:12PM 42.3044 -72.8175 84° East 295 339 6,600 -1,560 Descending Boston Center
09:13PM 42.3033 -72.7036 91° East 302 348 5,200 -840 Descending Boston Center
09:14PM 42.2528 -72.6217 130° Southeast 292 336 5,000 -120 Descending Boston Center
09:15PM 42.2025 -72.5483 133° Southeast 257 296 5,000 -660 Level Boston Center
09:16PM 42.1539 -72.4789 133° Southeast 262 302 3,700 -1,020 Descending Boston Center
09:17PM 42.0989 -72.4736 176° South 195 224 3,100 -420 Descending Boston Center
09:18PM 42.0669 -72.5144 224° Southwest 159 183 3,000 -180 Descending Boston Center
09:19PM 42.0367 -72.5586 227° Southwest 161 185 2,800 -600 Descending Boston Center
09:20PM 42.0069 -72.6000 226° Southwest 163 188 1,900 -840 Descending Boston Center
09:21PM 41.9786 -72.6333 221° Southwest 136 157 1,200 -720 Descending Boston Center
09:22PM 41.9544 -72.6681 227° Southwest 116 133 400 -720 Descending Boston Center